createdAt,value
2024-01-25T00:00:30.041Z,101906.80
2024-01-25T00:02:02.120Z,101901.20
2024-01-25T00:03:34.374Z,101904.20
2024-01-25T00:05:07.107Z,101909.20
2024-01-25T00:06:40.720Z,101909.60
2024-01-25T00:08:12.760Z,101908.20
2024-01-25T00:09:44.640Z,101907.20
2024-01-25T00:11:16.635Z,101908.80
2024-01-25T00:12:48.714Z,101908.80
2024-01-25T00:14:20.643Z,101907.80
2024-01-25T00:15:53.267Z,101910.40
2024-01-25T00:17:25.473Z,101917.80
2024-01-25T00:18:57.432Z,101920.20
2024-01-25T00:20:29.573Z,101910.20
2024-01-25T00:22:02.201Z,101907.40
2024-01-25T00:23:34.386Z,101907.00
2024-01-25T00:25:07.684Z,101902.80
2024-01-25T00:26:39.908Z,101905.60
2024-01-25T00:28:15.303Z,101914.80
2024-01-25T00:29:47.262Z,101917.00
2024-01-25T00:31:19.539Z,101915.20
2024-01-25T00:32:51.819Z,101903.60
2024-01-25T00:34:24.299Z,101907.40
2024-01-25T00:35:56.687Z,101908.80
2024-01-25T00:37:30.632Z,101906.20
2024-01-25T00:39:05.190Z,101917.80
2024-01-25T00:40:38.805Z,101916.60
2024-01-25T00:42:15.815Z,101920.20
2024-01-25T00:43:48.535Z,101911.40
2024-01-25T00:45:25.568Z,101920.40
2024-01-25T00:46:58.491Z,101919.80
2024-01-25T00:48:31.619Z,101917.00
2024-01-25T00:50:05.859Z,101916.20
2024-01-25T00:51:38.342Z,101924.20
2024-01-25T00:53:10.684Z,101929.20
2024-01-25T00:54:43.056Z,101930.00
2024-01-25T00:56:15.568Z,101922.40
2024-01-25T00:57:48.242Z,101918.00
2024-01-25T00:59:21.872Z,101921.60
2024-01-25T01:00:54.289Z,101929.00
2024-01-25T01:02:31.913Z,101927.80
2024-01-25T01:04:04.653Z,101928.40
2024-01-25T01:05:37.630Z,101923.40
2024-01-25T01:07:11.366Z,101929.20
2024-01-25T01:08:43.975Z,101924.80
2024-01-25T01:10:16.729Z,101928.20
2024-01-25T01:11:48.839Z,101932.80
2024-01-25T01:13:20.986Z,101930.80
2024-01-25T01:14:57.849Z,101925.00
2024-01-25T01:16:33.969Z,101925.20
2024-01-25T01:18:07.022Z,101925.00
2024-01-25T01:19:39.252Z,101922.00
2024-01-25T01:21:11.372Z,101924.00
2024-01-25T01:22:43.589Z,101922.60
2024-01-25T01:24:15.986Z,101921.40
2024-01-25T01:25:48.583Z,101926.40
2024-01-25T01:27:22.149Z,101926.60
2024-01-25T01:28:57.386Z,101928.20
2024-01-25T01:30:32.723Z,101932.00
2024-01-25T01:32:06.149Z,101926.80
2024-01-25T01:33:38.492Z,101939.20
2024-01-25T01:35:11.340Z,101944.80
2024-01-25T01:36:44.856Z,101950.40
2024-01-25T01:38:16.877Z,101954.00
2024-01-25T01:39:49.442Z,101959.60
2024-01-25T01:41:21.453Z,101951.80
2024-01-25T01:42:59.694Z,101953.80
2024-01-25T01:44:31.994Z,101953.00
2024-01-25T01:46:16.915Z,101948.20
2024-01-25T01:47:49.829Z,101959.40
2024-01-25T01:49:22.896Z,101957.80
2024-01-25T01:50:58.666Z,101963.20
2024-01-25T01:52:31.889Z,101961.20
2024-01-25T01:54:09.308Z,101968.00
2024-01-25T01:55:44.174Z,101969.80
2024-01-25T01:57:16.395Z,101964.40
2024-01-25T01:58:52.889Z,101962.80
2024-01-25T02:00:26.599Z,101960.60
2024-01-25T02:01:58.730Z,101961.20
2024-01-25T02:03:33.532Z,101965.40
2024-01-25T02:05:06.596Z,101963.80
2024-01-25T02:06:39.802Z,101962.60
2024-01-25T02:08:12.140Z,101970.00
2024-01-25T02:09:44.094Z,101971.00
2024-01-25T02:11:29.179Z,101974.40
2024-01-25T02:13:01.537Z,101977.00
2024-01-25T02:14:35.289Z,101982.20
2024-01-25T02:16:11.009Z,101979.80
2024-01-25T02:17:43.620Z,101977.80
2024-01-25T02:19:18.590Z,101975.00
2024-01-25T02:20:51.398Z,101975.00
2024-01-25T02:22:23.406Z,101983.40
2024-01-25T02:23:57.342Z,101982.00
2024-01-25T02:25:30.191Z,101985.20
2024-01-25T02:27:05.073Z,101989.60
2024-01-25T02:28:38.801Z,101989.80
2024-01-25T02:30:12.357Z,101985.20
2024-01-25T02:31:44.388Z,101986.00
2024-01-25T02:33:17.997Z,101986.00
2024-01-25T02:34:50.236Z,101986.60
2024-01-25T02:36:24.525Z,101980.60
2024-01-25T02:37:56.634Z,101984.40
2024-01-25T02:39:28.622Z,101985.60
2024-01-25T02:41:00.521Z,101989.20
2024-01-25T02:42:32.540Z,101982.60
2024-01-25T02:44:05.620Z,101988.20
2024-01-25T02:45:38.566Z,101986.60
2024-01-25T02:47:10.774Z,101990.80
2024-01-25T02:48:44.576Z,101983.20
2024-01-25T02:50:17.306Z,101988.40
2024-01-25T02:51:49.359Z,101990.60
2024-01-25T02:53:22.389Z,101994.00
2024-01-25T02:54:54.384Z,102000.60
2024-01-25T02:56:26.410Z,102005.40
2024-01-25T02:57:58.436Z,102005.00
2024-01-25T02:59:30.499Z,102006.40
2024-01-25T03:01:02.620Z,102007.00
2024-01-25T03:02:34.638Z,102007.60
2024-01-25T03:04:07.114Z,102014.20
2024-01-25T03:05:39.401Z,102012.60
2024-01-25T03:07:11.510Z,102017.80
2024-01-25T03:08:43.837Z,102012.60
2024-01-25T03:10:15.889Z,102007.00
2024-01-25T03:11:48.397Z,102015.20
2024-01-25T03:13:20.523Z,102020.20
2024-01-25T03:14:52.799Z,102022.00
2024-01-25T03:16:24.904Z,102023.60
2024-01-25T03:17:57.093Z,102025.20
2024-01-25T03:19:29.618Z,102025.40
2024-01-25T03:21:01.743Z,102022.20
2024-01-25T03:22:33.702Z,102017.80
2024-01-25T03:24:06.545Z,102026.60
2024-01-25T03:25:38.652Z,102025.00
2024-01-25T03:27:14.800Z,102028.80
2024-01-25T03:28:47.070Z,102031.40
2024-01-25T03:30:19.077Z,102031.00
2024-01-25T03:31:51.742Z,102024.80
2024-01-25T03:33:24.257Z,102025.40
2024-01-25T03:34:56.368Z,102029.40
2024-01-25T03:36:28.594Z,102027.80
2024-01-25T03:38:00.726Z,102029.20
2024-01-25T03:39:32.853Z,102026.20
2024-01-25T03:41:05.025Z,102022.80
2024-01-25T03:42:36.938Z,102023.20
2024-01-25T03:44:08.985Z,102020.60
2024-01-25T03:45:40.964Z,102020.80
2024-01-25T03:47:12.920Z,102026.60
2024-01-25T03:48:45.153Z,102021.00
2024-01-25T03:50:17.318Z,102026.80
2024-01-25T03:51:50.286Z,102028.20
2024-01-25T03:53:23.740Z,102024.20
2024-01-25T03:54:55.645Z,102021.60
2024-01-25T03:56:28.163Z,102022.00
2024-01-25T03:58:00.322Z,102019.80
2024-01-25T03:59:32.554Z,102022.40
2024-01-25T04:01:04.984Z,102026.80
2024-01-25T04:02:37.065Z,102029.80
2024-01-25T04:04:12.213Z,102033.00
2024-01-25T04:05:44.687Z,102032.60
2024-01-25T04:07:16.738Z,102041.00
2024-01-25T04:08:48.743Z,102043.00
2024-01-25T04:10:20.761Z,102043.00
2024-01-25T04:11:52.672Z,102043.20
2024-01-25T04:13:25.019Z,102042.40
2024-01-25T04:14:57.029Z,102050.20
2024-01-25T04:16:29.091Z,102049.80
2024-01-25T04:18:01.409Z,102045.00
2024-01-25T04:19:33.611Z,102051.60
2024-01-25T04:21:06.099Z,102055.00
2024-01-25T04:22:38.789Z,102051.60
2024-01-25T04:24:11.119Z,102055.60
2024-01-25T04:25:43.199Z,102057.40
2024-01-25T04:27:15.734Z,102062.00
2024-01-25T04:28:47.780Z,102064.40
2024-01-25T04:30:21.082Z,102066.80
2024-01-25T04:31:53.007Z,102062.40
2024-01-25T04:33:25.150Z,102062.00
2024-01-25T04:34:57.186Z,102064.00
2024-01-25T04:36:29.366Z,102061.20
2024-01-25T04:38:01.257Z,102052.00
2024-01-25T04:39:33.225Z,102050.40
2024-01-25T04:41:06.855Z,102049.00
2024-01-25T04:42:38.896Z,102052.40
2024-01-25T04:44:10.813Z,102050.80
2024-01-25T04:45:42.723Z,102043.40
2024-01-25T04:47:14.797Z,102044.80
2024-01-25T04:48:48.033Z,102045.80
2024-01-25T04:50:20.922Z,102046.00
2024-01-25T04:51:54.178Z,102050.40
2024-01-25T04:53:26.595Z,102054.00
2024-01-25T04:54:58.576Z,102057.00
2024-01-25T04:56:30.704Z,102055.00
2024-01-25T04:58:02.626Z,102052.80
2024-01-25T04:59:35.159Z,102054.20
2024-01-25T05:01:08.580Z,102045.40
2024-01-25T05:02:40.913Z,102045.20
2024-01-25T05:04:12.941Z,102042.80
2024-01-25T05:05:45.097Z,102039.60
2024-01-25T05:07:17.643Z,102042.40
2024-01-25T05:08:49.575Z,102042.20
2024-01-25T05:10:21.653Z,102047.60
2024-01-25T05:11:53.794Z,102047.40
2024-01-25T05:13:25.785Z,102051.40
2024-01-25T05:14:57.898Z,102056.40
2024-01-25T05:16:29.984Z,102057.60
2024-01-25T05:18:04.801Z,102057.20
2024-01-25T05:19:37.484Z,102054.60
2024-01-25T05:21:09.523Z,102054.00
2024-01-25T05:22:43.221Z,102054.40
2024-01-25T05:24:15.699Z,102048.20
2024-01-25T05:25:48.483Z,102048.80
2024-01-25T05:27:21.576Z,102047.00
2024-01-25T05:28:53.526Z,102047.00
2024-01-25T05:30:27.019Z,102049.40
2024-01-25T05:31:59.098Z,102044.00
2024-01-25T05:33:31.377Z,102048.80
2024-01-25T05:35:05.065Z,102052.60
2024-01-25T05:36:39.558Z,102050.20
2024-01-25T05:38:12.047Z,102053.00
2024-01-25T05:39:44.007Z,102048.40
2024-01-25T05:41:16.172Z,102050.40
2024-01-25T05:42:48.148Z,102052.60
2024-01-25T05:44:20.192Z,102055.80
2024-01-25T05:45:52.176Z,102054.60
2024-01-25T05:47:24.205Z,102055.40
2024-01-25T05:48:56.614Z,102061.60
2024-01-25T05:50:28.956Z,102060.00
2024-01-25T05:52:01.126Z,102058.40
2024-01-25T05:53:33.553Z,102060.80
2024-01-25T05:55:09.601Z,102058.80
2024-01-25T05:56:41.692Z,102061.00
2024-01-25T05:58:13.953Z,102061.60
2024-01-25T05:59:46.220Z,102061.60
2024-01-25T06:01:20.514Z,102054.40
2024-01-25T06:02:52.609Z,102056.40
2024-01-25T06:04:24.625Z,102060.20
2024-01-25T06:05:56.830Z,102064.20
2024-01-25T06:07:29.356Z,102057.40
2024-01-25T06:09:11.528Z,102060.80
2024-01-25T06:10:45.826Z,102064.00
2024-01-25T06:12:17.961Z,102069.20
2024-01-25T06:13:49.913Z,102070.20
2024-01-25T06:15:22.520Z,102071.40
2024-01-25T06:16:54.583Z,102069.60
2024-01-25T06:18:28.275Z,102070.00
2024-01-25T06:20:00.856Z,102069.00
2024-01-25T06:21:35.476Z,102065.20
2024-01-25T06:23:07.906Z,102062.40
2024-01-25T06:24:40.169Z,102061.80
2024-01-25T06:26:12.211Z,102063.60
2024-01-25T06:27:44.858Z,102064.00
2024-01-25T06:29:17.285Z,102069.00
2024-01-25T06:30:49.995Z,102064.80
2024-01-25T06:32:26.847Z,102067.40
2024-01-25T06:33:59.550Z,102067.20
2024-01-25T06:35:33.331Z,102067.00
2024-01-25T06:37:05.526Z,102075.60
2024-01-25T06:38:38.106Z,102082.20
2024-01-25T06:40:13.326Z,102086.20
2024-01-25T06:41:45.580Z,102082.40
2024-01-25T06:43:17.576Z,102085.20
2024-01-25T06:44:49.931Z,102085.80
2024-01-25T06:46:23.559Z,102090.60
2024-01-25T06:47:55.860Z,102088.40
2024-01-25T06:49:28.199Z,102095.80
2024-01-25T06:51:00.321Z,102092.00
2024-01-25T06:52:32.559Z,102095.40
2024-01-25T06:54:04.846Z,102102.20
2024-01-25T06:55:36.767Z,102101.20
2024-01-25T06:57:08.626Z,102104.80
2024-01-25T06:58:40.680Z,102101.20
2024-01-25T07:00:15.651Z,102102.00
2024-01-25T07:01:48.141Z,102102.80
2024-01-25T07:03:22.564Z,102101.80
2024-01-25T07:04:56.458Z,102101.60
2024-01-25T07:06:30.047Z,102108.40
2024-01-25T07:08:05.686Z,102108.00
2024-01-25T07:09:37.599Z,102117.20
2024-01-25T07:11:09.589Z,102112.40
2024-01-25T07:12:41.505Z,102116.00
2024-01-25T07:14:13.617Z,102123.00
2024-01-25T07:15:47.027Z,102123.80
2024-01-25T07:17:18.887Z,102122.40
2024-01-25T07:18:51.904Z,102129.60
2024-01-25T07:20:24.684Z,102132.80
2024-01-25T07:21:56.988Z,102130.40
2024-01-25T07:23:36.030Z,102133.80
2024-01-25T07:25:08.540Z,102128.60
2024-01-25T07:26:40.461Z,102123.00
2024-01-25T07:28:12.611Z,102123.20
2024-01-25T07:29:48.671Z,102116.20
2024-01-25T07:31:21.524Z,102118.40
2024-01-25T07:32:53.592Z,102112.40
2024-01-25T07:34:25.508Z,102118.20
2024-01-25T07:35:59.537Z,102122.80
2024-01-25T07:37:32.298Z,102133.40
2024-01-25T07:39:04.526Z,102136.80
2024-01-25T07:40:36.660Z,102137.20
2024-01-25T07:42:08.679Z,102137.20
2024-01-25T07:43:40.652Z,102136.80
2024-01-25T07:45:14.493Z,102135.20
2024-01-25T07:46:46.488Z,102132.20
2024-01-25T07:48:18.539Z,102131.40
2024-01-25T07:49:50.819Z,102130.20
2024-01-25T07:51:23.143Z,102132.20
2024-01-25T07:52:56.419Z,102137.20
2024-01-25T07:54:28.319Z,102141.80
2024-01-25T07:56:00.678Z,102143.40
2024-01-25T07:57:32.657Z,102144.20
2024-01-25T07:59:05.069Z,102142.80
2024-01-25T08:00:37.289Z,102145.00
2024-01-25T08:02:09.678Z,102144.60
2024-01-25T08:03:43.193Z,102144.80
2024-01-25T08:05:15.575Z,102147.00
2024-01-25T08:06:47.957Z,102148.20
2024-01-25T08:08:19.976Z,102148.00
2024-01-25T08:09:54.064Z,102149.20
2024-01-25T08:11:26.969Z,102152.20
2024-01-25T08:13:07.018Z,102157.40
2024-01-25T08:14:39.890Z,102153.20
2024-01-25T08:16:12.389Z,102155.40
2024-01-25T08:17:44.759Z,102155.20
2024-01-25T08:19:17.790Z,102153.20
2024-01-25T08:20:54.324Z,102154.00
2024-01-25T08:22:26.297Z,102155.00
2024-01-25T08:23:58.174Z,102151.00
2024-01-25T08:25:30.581Z,102151.20
2024-01-25T08:27:03.247Z,102157.60
2024-01-25T08:28:35.184Z,102161.40
2024-01-25T08:30:08.777Z,102159.60
2024-01-25T08:31:40.726Z,102158.20
2024-01-25T08:33:13.158Z,102159.40
2024-01-25T08:34:46.561Z,102158.00
2024-01-25T08:36:23.945Z,102160.00
2024-01-25T08:37:55.902Z,102162.60
2024-01-25T08:39:35.013Z,102157.20
2024-01-25T08:41:07.107Z,102156.20
2024-01-25T08:42:39.152Z,102155.00
2024-01-25T08:44:11.305Z,102152.20
2024-01-25T08:45:43.364Z,102157.20
2024-01-25T08:47:15.530Z,102157.60
2024-01-25T08:48:47.712Z,102157.60
2024-01-25T08:50:20.048Z,102151.80
2024-01-25T08:51:53.197Z,102151.20
2024-01-25T08:53:28.732Z,102150.60
2024-01-25T08:55:01.381Z,102150.60
2024-01-25T08:56:33.514Z,102146.80
2024-01-25T08:58:05.628Z,102148.20
2024-01-25T08:59:38.689Z,102152.00
2024-01-25T09:01:12.125Z,102149.60
2024-01-25T09:02:44.171Z,102149.60
2024-01-25T09:04:16.177Z,102147.00
2024-01-25T09:05:49.872Z,102150.00
2024-01-25T09:07:23.531Z,102150.40
2024-01-25T09:08:56.034Z,102151.00
2024-01-25T09:10:28.059Z,102147.80
2024-01-25T09:11:59.954Z,102146.40
2024-01-25T09:13:33.991Z,102149.60
2024-01-25T09:15:17.086Z,102158.40
2024-01-25T09:16:50.893Z,102156.40
2024-01-25T09:18:23.757Z,102156.80
2024-01-25T09:19:56.436Z,102153.60
2024-01-25T09:21:28.546Z,102161.20
2024-01-25T09:23:02.044Z,102159.80
2024-01-25T09:24:37.152Z,102156.00
2024-01-25T09:26:09.887Z,102155.20
2024-01-25T09:27:41.838Z,102156.60
2024-01-25T09:29:13.808Z,102156.60
2024-01-25T09:30:47.011Z,102157.00
2024-01-25T09:32:21.955Z,102157.20
2024-01-25T09:33:54.384Z,102154.00
2024-01-25T09:35:26.784Z,102157.40
2024-01-25T09:36:58.882Z,102157.20
2024-01-25T09:38:33.650Z,102158.80
2024-01-25T09:40:11.282Z,102158.80
2024-01-25T09:41:45.128Z,102161.00
2024-01-25T09:43:18.116Z,102162.00
2024-01-25T09:44:50.612Z,102157.20
2024-01-25T09:46:25.215Z,102162.40
2024-01-25T09:47:57.656Z,102169.00
2024-01-25T09:49:29.950Z,102171.80
2024-01-25T09:51:02.370Z,102176.40
2024-01-25T09:52:36.365Z,102188.00
2024-01-25T09:54:09.210Z,102197.60
2024-01-25T09:55:45.415Z,102197.00
2024-01-25T09:57:23.812Z,102198.00
2024-01-25T09:58:56.930Z,102193.60
2024-01-25T10:00:31.021Z,102194.60
2024-01-25T10:02:05.473Z,102190.40
2024-01-25T10:03:41.373Z,102189.20
2024-01-25T10:05:13.692Z,102188.00
2024-01-25T10:06:45.800Z,102188.80
2024-01-25T10:08:20.064Z,102189.20
2024-01-25T10:09:54.264Z,102192.60
2024-01-25T10:11:26.317Z,102200.80
2024-01-25T10:12:58.597Z,102204.40
2024-01-25T10:14:30.490Z,102206.20
2024-01-25T10:16:02.954Z,102204.40
2024-01-25T10:17:52.688Z,102200.80
2024-01-25T10:19:27.346Z,102197.40
2024-01-25T10:21:01.764Z,102194.20
2024-01-25T10:22:34.688Z,102199.00
2024-01-25T10:24:08.206Z,102193.00
2024-01-25T10:25:40.532Z,102189.00
2024-01-25T10:27:13.869Z,102189.40
2024-01-25T10:28:57.825Z,102184.80
2024-01-25T10:30:36.711Z,102185.80
2024-01-25T10:32:13.331Z,102191.40
2024-01-25T10:33:55.228Z,102194.80
2024-01-25T10:35:29.080Z,102191.20
2024-01-25T10:37:03.702Z,102193.20
2024-01-25T10:38:38.087Z,102188.20
2024-01-25T10:40:12.564Z,102183.00
2024-01-25T10:41:51.494Z,102187.60
2024-01-25T10:43:24.716Z,102193.80
2024-01-25T10:44:57.566Z,102196.40
2024-01-25T10:46:30.982Z,102194.00
2024-01-25T10:48:03.917Z,102183.80
2024-01-25T10:49:38.046Z,102173.00
2024-01-25T10:51:19.823Z,102170.20
2024-01-25T10:52:52.488Z,102160.80
2024-01-25T10:54:25.133Z,102161.00
2024-01-25T10:55:57.287Z,102159.00
2024-01-25T10:57:38.995Z,102152.40
2024-01-25T10:59:14.909Z,102157.20
2024-01-25T11:01:15.919Z,102148.20
2024-01-25T11:02:50.920Z,102151.20
2024-01-25T11:04:23.796Z,102145.60
2024-01-25T11:06:06.474Z,102141.00
2024-01-25T11:07:48.285Z,102135.80
2024-01-25T11:09:22.868Z,102134.80
2024-01-25T11:10:57.163Z,102130.20
2024-01-25T11:12:29.073Z,102130.20
2024-01-25T11:14:01.011Z,102130.60
2024-01-25T11:15:36.157Z,102136.00
2024-01-25T11:17:23.182Z,102132.20
2024-01-25T11:19:21.331Z,102125.40
2024-01-25T11:20:53.855Z,102115.60
2024-01-25T11:22:36.770Z,102120.40
2024-01-25T11:24:21.073Z,102125.40
2024-01-25T11:25:56.237Z,102125.80
2024-01-25T11:27:28.181Z,102118.80
2024-01-25T11:29:01.533Z,102113.80
2024-01-25T11:30:36.799Z,102115.20
2024-01-25T11:32:10.357Z,102107.40
2024-01-25T11:33:42.438Z,102110.40
2024-01-25T11:35:18.776Z,102110.40
2024-01-25T11:36:51.575Z,102111.20
2024-01-25T11:38:24.227Z,102109.60
2024-01-25T11:39:56.196Z,102107.40
2024-01-25T11:41:28.266Z,102101.80
2024-01-25T11:43:00.301Z,102098.60
2024-01-25T11:44:32.473Z,102092.20
2024-01-25T11:46:05.175Z,102086.60
2024-01-25T11:47:42.069Z,102081.00
2024-01-25T11:49:14.243Z,102075.80
2024-01-25T11:50:46.520Z,102076.00
2024-01-25T11:52:18.637Z,102076.00
2024-01-25T11:53:50.608Z,102068.60
2024-01-25T11:55:23.038Z,102064.00
2024-01-25T11:56:55.478Z,102067.20
2024-01-25T11:58:29.190Z,102071.20
2024-01-25T12:00:05.737Z,102073.00
2024-01-25T12:01:42.546Z,102076.80
2024-01-25T12:03:17.102Z,102063.80
2024-01-25T12:04:50.235Z,102060.20
2024-01-25T12:06:22.870Z,102055.20
2024-01-25T12:07:55.403Z,102052.20
2024-01-25T12:09:27.614Z,102057.60
2024-01-25T12:11:11.151Z,102058.60
2024-01-25T12:12:43.184Z,102050.00
2024-01-25T12:14:18.269Z,102049.60
2024-01-25T12:15:50.490Z,102048.40
2024-01-25T12:17:22.376Z,102041.80
2024-01-25T12:18:55.411Z,102037.00
2024-01-25T12:20:29.821Z,102028.60
2024-01-25T12:22:02.133Z,102029.60
2024-01-25T12:23:41.674Z,102032.80
2024-01-25T12:25:15.081Z,102032.80
2024-01-25T12:26:48.976Z,102030.00
2024-01-25T12:28:21.375Z,102027.80
2024-01-25T12:29:55.015Z,102024.60
2024-01-25T12:31:27.533Z,102025.20
2024-01-25T12:32:59.924Z,102025.60
2024-01-25T12:34:33.942Z,102023.20
2024-01-25T12:36:11.360Z,102027.60
2024-01-25T12:37:43.561Z,102028.20
2024-01-25T12:39:18.189Z,102031.00
2024-01-25T12:43:53.621Z,102035.80
2024-01-25T12:45:26.528Z,102031.20
2024-01-25T12:47:02.525Z,102034.00
2024-01-25T12:48:34.763Z,102029.00
2024-01-25T12:50:07.427Z,102026.00
2024-01-25T12:51:41.210Z,102028.40
2024-01-25T12:53:13.731Z,102038.40
2024-01-25T12:54:45.799Z,102043.60
2024-01-25T12:56:17.806Z,102045.80
2024-01-25T12:57:49.872Z,102037.80
2024-01-25T12:59:23.297Z,102035.80
2024-01-25T13:00:55.356Z,102031.60
2024-01-25T13:02:28.068Z,102026.60
2024-01-25T13:04:00.345Z,102025.00
2024-01-25T13:05:35.450Z,102023.60
2024-01-25T13:07:08.563Z,102024.80
2024-01-25T13:08:40.699Z,102016.60
2024-01-25T13:10:13.434Z,102015.20
2024-01-25T13:11:49.869Z,102017.60
2024-01-25T13:13:23.574Z,102016.80
2024-01-25T13:14:55.667Z,102022.40
2024-01-25T13:16:28.384Z,102017.40
2024-01-25T13:18:03.268Z,102018.00
2024-01-25T13:19:38.894Z,102020.40
2024-01-25T13:21:12.133Z,102029.20
2024-01-25T13:22:44.249Z,102034.20
2024-01-25T13:24:16.712Z,102036.20
2024-01-25T13:25:48.733Z,102037.20
2024-01-25T13:27:20.770Z,102027.60
2024-01-25T13:28:53.288Z,102026.20
2024-01-25T13:30:25.250Z,102017.20
2024-01-25T13:31:57.145Z,102011.40
2024-01-25T13:33:29.442Z,102007.80
2024-01-25T13:35:01.703Z,102011.80
2024-01-25T13:36:33.676Z,102012.20
2024-01-25T13:38:06.067Z,102018.80
2024-01-25T13:39:37.992Z,102011.40
2024-01-25T13:41:09.994Z,102008.20
2024-01-25T13:42:41.998Z,102003.20
2024-01-25T13:44:17.982Z,102001.40
2024-01-25T13:45:49.941Z,101997.60
2024-01-25T13:47:22.433Z,101993.80
2024-01-25T13:48:54.740Z,101986.40
2024-01-25T13:50:26.821Z,101990.60
2024-01-25T13:52:04.217Z,101992.20
2024-01-25T13:53:38.103Z,101994.00
2024-01-25T13:55:10.355Z,101995.20
2024-01-25T13:56:42.285Z,101994.00
2024-01-25T13:58:14.257Z,101995.60
2024-01-25T13:59:46.341Z,101992.00
2024-01-25T14:01:18.551Z,101990.00
2024-01-25T14:02:51.955Z,101996.60
2024-01-25T14:04:24.359Z,101992.00
2024-01-25T14:05:58.555Z,101992.20
2024-01-25T14:07:30.628Z,101990.40
2024-01-25T14:09:03.373Z,101982.00
2024-01-25T14:10:37.414Z,101977.80
2024-01-25T14:12:09.661Z,101972.80
2024-01-25T14:13:43.777Z,101975.40
2024-01-25T14:15:18.062Z,101974.80
2024-01-25T14:16:50.009Z,101979.00
2024-01-25T14:18:22.131Z,101975.80
2024-01-25T14:19:55.445Z,101974.60
2024-01-25T14:21:27.493Z,101970.60
2024-01-25T14:22:59.966Z,101967.60
2024-01-25T14:24:32.740Z,101966.40
2024-01-25T14:26:05.559Z,101965.40
2024-01-25T14:27:39.144Z,101966.20
2024-01-25T14:29:11.187Z,101968.80
2024-01-25T14:30:44.235Z,101968.20
2024-01-25T14:32:16.284Z,101965.80
2024-01-25T14:33:48.466Z,101964.00
2024-01-25T14:35:20.582Z,101955.60
2024-01-25T14:36:52.573Z,101952.20
2024-01-25T14:38:24.466Z,101946.40
2024-01-25T14:40:08.664Z,101942.60
2024-01-25T14:41:48.636Z,101940.80
2024-01-25T14:43:20.676Z,101937.00
2024-01-25T14:44:53.300Z,101936.00
2024-01-25T14:46:25.203Z,101934.20
2024-01-25T14:47:58.813Z,101932.20
2024-01-25T14:49:32.400Z,101927.80
2024-01-25T14:51:04.579Z,101925.20
2024-01-25T14:52:36.506Z,101917.60
2024-01-25T14:54:08.963Z,101920.40
2024-01-25T14:55:41.506Z,101918.00
2024-01-25T14:57:13.493Z,101918.20
2024-01-25T14:58:46.080Z,101920.00
2024-01-25T15:00:21.120Z,101917.00
2024-01-25T15:01:53.280Z,101919.00
2024-01-25T15:03:25.918Z,101915.00
2024-01-25T15:04:58.188Z,101915.80
2024-01-25T15:06:32.334Z,101917.80
2024-01-25T15:08:05.056Z,101914.20
2024-01-25T15:09:37.071Z,101918.20
2024-01-25T15:11:10.375Z,101919.40
2024-01-25T15:12:44.081Z,101921.00
2024-01-25T15:14:16.094Z,101918.00
2024-01-25T15:15:48.086Z,101918.20
2024-01-25T15:17:20.512Z,101914.60
2024-01-25T15:18:52.803Z,101910.60
2024-01-25T15:20:25.202Z,101914.40
2024-01-25T15:21:57.248Z,101912.60
2024-01-25T15:23:30.676Z,101912.80
2024-01-25T15:25:02.856Z,101908.40
2024-01-25T15:26:34.906Z,101912.20
2024-01-25T15:28:07.226Z,101906.20
2024-01-25T15:29:41.763Z,101911.40
2024-01-25T15:31:13.736Z,101911.00
2024-01-25T15:32:47.761Z,101909.60
2024-01-25T15:34:19.721Z,101905.40
2024-01-25T15:35:51.632Z,101901.60
2024-01-25T15:37:24.628Z,101898.80
2024-01-25T15:38:56.612Z,101898.00
2024-01-25T15:40:28.538Z,101897.60
2024-01-25T15:42:01.028Z,101899.40
2024-01-25T15:43:35.482Z,101898.40
2024-01-25T15:45:09.597Z,101898.80
2024-01-25T15:46:41.694Z,101895.80
2024-01-25T15:48:14.858Z,101896.80
2024-01-25T15:49:46.926Z,101893.00
2024-01-25T15:51:18.867Z,101890.00
2024-01-25T15:52:50.958Z,101887.60
2024-01-25T15:54:23.600Z,101885.40
2024-01-25T15:55:56.752Z,101884.00
2024-01-25T15:57:39.687Z,101884.60
2024-01-25T15:59:11.620Z,101882.40
2024-01-25T16:00:43.561Z,101879.40
2024-01-25T16:02:15.639Z,101875.60
2024-01-25T16:03:48.149Z,101875.60
2024-01-25T16:05:20.156Z,101875.00
2024-01-25T16:06:52.363Z,101877.60
2024-01-25T16:08:25.107Z,101875.00
2024-01-25T16:09:57.105Z,101871.80
2024-01-25T16:11:29.103Z,101870.40
2024-01-25T16:13:01.067Z,101868.00
2024-01-25T16:14:33.029Z,101864.60
2024-01-25T16:16:06.343Z,101871.00
2024-01-25T16:17:38.639Z,101870.20
2024-01-25T16:19:10.630Z,101866.40
2024-01-25T16:20:42.698Z,101871.80
2024-01-25T16:22:15.364Z,101867.00
2024-01-25T16:23:47.286Z,101873.00
2024-01-25T16:25:20.559Z,101874.40
2024-01-25T16:26:52.532Z,101876.20
2024-01-25T16:28:24.443Z,101875.00
2024-01-25T16:29:57.600Z,101873.40
2024-01-25T16:31:29.521Z,101868.00
2024-01-25T16:33:01.492Z,101865.60
2024-01-25T16:34:33.874Z,101866.20
2024-01-25T16:36:07.357Z,101871.80
2024-01-25T16:37:39.789Z,101869.60
2024-01-25T16:39:11.682Z,101867.40
2024-01-25T16:40:43.761Z,101867.00
2024-01-25T16:42:17.457Z,101860.60
2024-01-25T16:43:49.626Z,101858.60
2024-01-25T16:45:21.881Z,101864.00
2024-01-25T16:46:54.023Z,101865.00
2024-01-25T16:48:27.830Z,101862.80
2024-01-25T16:50:00.418Z,101862.60
2024-01-25T16:51:32.709Z,101863.00
2024-01-25T16:53:04.748Z,101857.60
2024-01-25T16:54:37.975Z,101853.60
2024-01-25T16:56:09.950Z,101853.60
2024-01-25T16:57:50.443Z,101853.20
2024-01-25T16:59:22.838Z,101847.80
2024-01-25T17:00:54.942Z,101848.40
2024-01-25T17:02:27.529Z,101844.20
2024-01-25T17:03:59.617Z,101846.20
2024-01-25T17:05:31.680Z,101848.00
2024-01-25T17:07:06.595Z,101843.20
2024-01-25T17:08:38.798Z,101837.00
2024-01-25T17:10:10.953Z,101839.80
2024-01-25T17:11:46.066Z,101837.40
2024-01-25T17:13:20.483Z,101839.60
2024-01-25T17:14:52.485Z,101835.60
2024-01-25T17:16:24.422Z,101842.80
2024-01-25T17:17:56.575Z,101836.00
2024-01-25T17:19:28.841Z,101840.80
2024-01-25T17:21:01.102Z,101833.20
2024-01-25T17:22:33.708Z,101832.40
2024-01-25T17:24:07.778Z,101833.20
2024-01-25T17:25:40.138Z,101834.00
2024-01-25T17:27:12.844Z,101830.60
2024-01-25T17:28:45.082Z,101832.00
2024-01-25T17:30:17.309Z,101827.60
2024-01-25T17:31:49.308Z,101833.60
2024-01-25T17:33:21.502Z,101832.60
2024-01-25T17:34:57.910Z,101828.40
2024-01-25T17:36:29.909Z,101830.00
2024-01-25T17:38:02.086Z,101826.60
2024-01-25T17:39:34.950Z,101831.00
2024-01-25T17:41:07.943Z,101831.20
2024-01-25T17:42:39.972Z,101833.80
2024-01-25T17:44:12.937Z,101834.80
2024-01-25T17:45:45.005Z,101831.60
2024-01-25T17:47:17.725Z,101828.20